createdAt,value
2023-01-30T00:00:52.211Z,101900.84
2023-01-30T00:03:18.684Z,101895.06
2023-01-30T00:05:45.091Z,101886.91
2023-01-30T00:08:11.483Z,101895.28
2023-01-30T00:10:37.829Z,101897.94
2023-01-30T00:13:04.290Z,101898.56
2023-01-30T00:15:30.636Z,101908.16
2023-01-30T00:17:56.998Z,101897.91
2023-01-30T00:20:23.372Z,101880.72
2023-01-30T00:23:00.452Z,101883.75
2023-01-30T00:25:27.961Z,101863.94
2023-01-30T00:27:54.425Z,101856.56
2023-01-30T00:30:20.956Z,101855.31
2023-01-30T00:32:47.413Z,101851.63
2023-01-30T00:35:13.761Z,101843.41
2023-01-30T00:37:40.199Z,101840.75
2023-01-30T00:40:06.984Z,101831.75
2023-01-30T00:42:51.975Z,101815.59
2023-01-30T00:45:36.954Z,101822.50
2023-01-30T00:48:03.626Z,101829.88
2023-01-30T00:50:42.372Z,101826.78
2023-01-30T00:53:13.492Z,101819.41
2023-01-30T00:55:40.123Z,101818.97
2023-01-30T00:58:06.677Z,101824.91
2023-01-30T01:00:33.698Z,101816.94
2023-01-30T01:03:00.362Z,101824.06
2023-01-30T01:05:27.171Z,101821.22
2023-01-30T01:07:53.907Z,101808.53
2023-01-30T01:10:20.970Z,101795.78
2023-01-30T01:12:49.516Z,101785.97
2023-01-30T01:15:16.423Z,101788.00
2023-01-30T01:17:42.951Z,101789.25
2023-01-30T01:20:10.157Z,101785.59
2023-01-30T01:22:36.692Z,101783.50
2023-01-30T01:25:03.190Z,101770.19
2023-01-30T01:27:29.791Z,101777.38
2023-01-30T01:29:56.234Z,101773.91
2023-01-30T01:32:23.251Z,101775.72
2023-01-30T01:34:49.848Z,101773.28
2023-01-30T01:37:16.242Z,101768.13
2023-01-30T01:40:01.397Z,101758.13
2023-01-30T01:42:33.193Z,101752.81
2023-01-30T01:45:24.508Z,101758.97
2023-01-30T01:48:10.397Z,101752.81
2023-01-30T01:51:08.982Z,101759.34
2023-01-30T01:53:41.978Z,101758.31
2023-01-30T01:56:08.579Z,101745.66
2023-01-30T01:58:40.224Z,101757.09
2023-01-30T02:01:07.255Z,101754.44
2023-01-30T02:03:39.782Z,101748.31
2023-01-30T02:06:07.359Z,101750.16
2023-01-30T02:08:43.799Z,101738.47
2023-01-30T02:11:35.192Z,101738.47
2023-01-30T02:14:02.945Z,101744.16
2023-01-30T02:16:29.511Z,101751.97
2023-01-30T02:18:56.049Z,101753.59
2023-01-30T02:22:05.562Z,101744.56
2023-01-30T02:25:02.244Z,101746.19
2023-01-30T02:28:02.897Z,101737.16
2023-01-30T02:30:57.319Z,101741.47
2023-01-30T02:33:51.942Z,101745.75
2023-01-30T02:36:38.925Z,101754.75
2023-01-30T02:39:19.509Z,101744.13
2023-01-30T02:42:00.142Z,101735.31
2023-01-30T02:44:33.199Z,101724.88
2023-01-30T02:47:09.219Z,101725.72
2023-01-30T02:49:41.692Z,101726.50
2023-01-30T02:52:11.450Z,101732.06
2023-01-30T02:54:37.848Z,101722.44
2023-01-30T02:57:04.285Z,101728.59
2023-01-30T02:59:43.405Z,101724.06
2023-01-30T03:02:31.678Z,101712.63
2023-01-30T03:05:10.154Z,101707.06
2023-01-30T03:07:50.446Z,101712.41
2023-01-30T03:10:43.886Z,101711.00
2023-01-30T03:13:26.980Z,101712.63
2023-01-30T03:16:03.324Z,101712.63
2023-01-30T03:18:29.850Z,101703.59
2023-01-30T03:20:56.753Z,101693.53
2023-01-30T03:23:23.151Z,101699.47
2023-01-30T03:25:49.821Z,101688.63
2023-01-30T03:28:20.335Z,101693.94
2023-01-30T03:30:46.927Z,101686.75
2023-01-30T03:33:13.565Z,101700.88
2023-01-30T03:35:40.300Z,101687.78
2023-01-30T03:38:06.876Z,101692.88
2023-01-30T03:40:33.414Z,101694.50
2023-01-30T03:43:00.000Z,101692.63
2023-01-30T03:45:26.475Z,101692.75
2023-01-30T03:47:52.847Z,101693.34
2023-01-30T03:50:19.259Z,101687.00
2023-01-30T03:52:45.699Z,101681.00
2023-01-30T03:55:12.233Z,101683.25
2023-01-30T03:57:38.704Z,101688.38
2023-01-30T04:00:05.607Z,101690.56
2023-01-30T04:02:32.329Z,101679.31
2023-01-30T04:04:58.850Z,101680.38
2023-01-30T04:07:25.288Z,101681.53
2023-01-30T04:09:51.745Z,101684.81
2023-01-30T04:12:18.220Z,101690.50
2023-01-30T04:14:44.681Z,101692.97
2023-01-30T04:17:11.056Z,101688.22
2023-01-30T04:19:37.559Z,101691.69
2023-01-30T04:22:04.004Z,101696.78
2023-01-30T04:24:30.490Z,101705.38
2023-01-30T04:26:56.846Z,101711.75
2023-01-30T04:29:23.270Z,101694.94
2023-01-30T04:31:49.871Z,101689.19
2023-01-30T04:34:16.253Z,101688.34
2023-01-30T04:36:42.617Z,101704.72
2023-01-30T04:39:09.069Z,101703.47
2023-01-30T04:41:35.733Z,101696.28
2023-01-30T04:44:02.140Z,101692.00
2023-01-30T04:46:28.625Z,101701.84
2023-01-30T04:48:55.048Z,101702.63
2023-01-30T04:51:21.479Z,101698.16
2023-01-30T04:53:47.958Z,101686.44
2023-01-30T04:56:14.397Z,101701.19
2023-01-30T04:58:40.956Z,101705.66
2023-01-30T05:01:36.242Z,101687.25
2023-01-30T05:04:03.844Z,101705.91
2023-01-30T05:06:31.344Z,101708.34
2023-01-30T05:08:58.361Z,101714.94
2023-01-30T05:11:26.682Z,101708.81
2023-01-30T05:13:53.305Z,101719.47
2023-01-30T05:16:21.359Z,101694.44
2023-01-30T05:18:48.127Z,101701.59
2023-01-30T05:21:20.330Z,101723.53
2023-01-30T05:23:47.365Z,101710.44
2023-01-30T05:26:15.059Z,101702.22
2023-01-30T05:28:42.334Z,101712.28
2023-01-30T05:31:11.795Z,101707.16
2023-01-30T05:33:39.795Z,101724.41
2023-01-30T05:36:07.402Z,101710.03
2023-01-30T05:38:34.094Z,101721.97
2023-01-30T05:41:02.415Z,101727.13
2023-01-30T05:43:29.280Z,101736.81
2023-01-30T05:45:57.685Z,101737.66
2023-01-30T05:48:24.858Z,101735.66
2023-01-30T05:50:52.419Z,101728.88
2023-01-30T05:53:22.990Z,101729.53
2023-01-30T05:56:00.623Z,101731.47
2023-01-30T05:58:27.961Z,101727.00
2023-01-30T06:00:55.131Z,101731.16
2023-01-30T06:03:21.613Z,101736.91
2023-01-30T06:05:48.039Z,101728.91
2023-01-30T06:08:14.516Z,101724.63
2023-01-30T06:10:41.003Z,101741.25
2023-01-30T06:13:07.495Z,101743.97
2023-01-30T06:15:34.035Z,101754.84
2023-01-30T06:18:00.404Z,101747.13
2023-01-30T06:20:27.015Z,101750.44
2023-01-30T06:22:53.576Z,101742.50
2023-01-30T06:25:20.433Z,101751.28
2023-01-30T06:27:47.378Z,101750.72
2023-01-30T06:30:14.158Z,101744.81
2023-01-30T06:32:42.716Z,101743.81
2023-01-30T06:35:09.376Z,101749.97
2023-01-30T06:37:35.860Z,101741.78
2023-01-30T06:40:02.524Z,101756.34
2023-01-30T06:42:28.961Z,101752.91
2023-01-30T06:44:55.435Z,101753.75
2023-01-30T06:47:21.945Z,101747.81
2023-01-30T06:49:49.229Z,101750.47
2023-01-30T06:52:15.656Z,101749.25
2023-01-30T06:54:42.128Z,101764.00
2023-01-30T06:57:08.505Z,101762.13
2023-01-30T06:59:34.873Z,101770.72
2023-01-30T07:02:01.315Z,101772.56
2023-01-30T07:04:27.842Z,101762.13
2023-01-30T07:06:54.291Z,101773.00
2023-01-30T07:09:20.735Z,101760.94
2023-01-30T07:11:48.682Z,101786.28
2023-01-30T07:14:15.185Z,101789.97
2023-01-30T07:16:41.733Z,101793.50
2023-01-30T07:19:08.522Z,101806.78
2023-01-30T07:21:35.016Z,101809.44
2023-01-30T07:24:01.432Z,101797.38
2023-01-30T07:26:29.688Z,101820.50
2023-01-30T07:28:56.233Z,101824.78
2023-01-30T07:31:22.756Z,101820.50
2023-01-30T07:33:49.308Z,101819.03
2023-01-30T07:36:15.689Z,101814.78
2023-01-30T07:38:42.110Z,101818.66
2023-01-30T07:41:08.522Z,101821.13
2023-01-30T07:43:34.945Z,101835.63
2023-01-30T07:46:01.913Z,101824.38
2023-01-30T07:48:28.342Z,101827.88
2023-01-30T07:50:59.174Z,101818.66
2023-01-30T07:53:25.679Z,101814.97
2023-01-30T07:55:52.176Z,101832.97
2023-01-30T07:58:18.654Z,101830.50
2023-01-30T08:00:45.406Z,101815.38
2023-01-30T08:03:16.448Z,101830.09
2023-01-30T08:05:45.444Z,101832.13
2023-01-30T08:08:11.829Z,101820.66
2023-01-30T08:10:38.327Z,101825.78
2023-01-30T08:13:04.860Z,101814.13
2023-01-30T08:15:33.435Z,101832.50
2023-01-30T08:18:00.066Z,101830.47
2023-01-30T08:20:27.939Z,101829.63
2023-01-30T08:22:54.590Z,101839.81
2023-01-30T08:25:22.043Z,101853.47
2023-01-30T08:27:48.456Z,101855.50
2023-01-30T08:30:14.939Z,101842.97
2023-01-30T08:32:41.522Z,101848.47
2023-01-30T08:35:08.662Z,101860.13
2023-01-30T08:37:35.256Z,101866.25
2023-01-30T08:40:01.770Z,101862.78
2023-01-30T08:42:28.213Z,101860.91
2023-01-30T08:44:54.706Z,101871.56
2023-01-30T08:47:21.143Z,101869.94
2023-01-30T08:49:47.704Z,101866.47
2023-01-30T08:52:14.049Z,101876.09
2023-01-30T08:54:40.532Z,101852.75
2023-01-30T08:57:06.904Z,101859.47
2023-01-30T08:59:33.447Z,101869.72
2023-01-30T09:01:59.974Z,101871.94
2023-01-30T09:04:26.547Z,101881.94
2023-01-30T09:06:53.208Z,101889.75
2023-01-30T09:09:19.688Z,101872.75
2023-01-30T09:11:47.987Z,101891.16
2023-01-30T09:14:19.601Z,101893.41
2023-01-30T09:16:59.263Z,101899.75
2023-01-30T09:19:27.047Z,101901.16
2023-01-30T09:21:54.713Z,101887.84
2023-01-30T09:24:26.802Z,101913.03
2023-01-30T09:26:58.972Z,101919.38
2023-01-30T09:29:26.951Z,101899.94
2023-01-30T09:31:53.909Z,101911.41
2023-01-30T09:34:20.555Z,101917.94
2023-01-30T09:36:47.074Z,101906.88
2023-01-30T09:39:13.538Z,101921.59
2023-01-30T09:41:50.331Z,101929.72
2023-01-30T09:44:32.848Z,101930.53
2023-01-30T09:47:11.703Z,101930.91
2023-01-30T09:49:47.941Z,101926.78
2023-01-30T09:52:14.519Z,101942.56
2023-01-30T09:54:44.620Z,101928.81
2023-01-30T09:59:57.548Z,101935.81
2023-01-30T10:02:47.595Z,101947.50
2023-01-30T10:05:14.637Z,101952.03
2023-01-30T10:07:49.212Z,101949.94
2023-01-30T10:10:34.074Z,101945.22
2023-01-30T10:13:21.949Z,101954.47
2023-01-30T10:15:55.323Z,101960.16
2023-01-30T10:18:43.844Z,101964.66
2023-01-30T10:21:44.463Z,101977.53
2023-01-30T10:24:28.501Z,101982.25
2023-01-30T10:26:56.842Z,101983.66
2023-01-30T10:29:31.393Z,101976.25
2023-01-30T10:32:19.517Z,101977.66
2023-01-30T10:34:54.830Z,101979.97
2023-01-30T10:37:44.522Z,101970.31
2023-01-30T10:40:33.570Z,101974.03
2023-01-30T10:43:25.843Z,101964.63
2023-01-30T10:46:18.335Z,101987.56
2023-01-30T10:49:03.449Z,101984.91
2023-01-30T10:51:53.714Z,101984.69
2023-01-30T10:54:32.744Z,101980.97
2023-01-30T10:57:12.833Z,101986.75
2023-01-30T10:59:54.632Z,101976.16
2023-01-30T11:02:28.673Z,101981.34
2023-01-30T11:05:01.085Z,101993.06
2023-01-30T11:07:31.195Z,101988.72
2023-01-30T11:09:59.012Z,101991.34
2023-01-30T11:12:25.993Z,101977.31
2023-01-30T11:15:00.329Z,101979.16
2023-01-30T11:17:39.597Z,101996.53
2023-01-30T11:20:20.691Z,101982.28
2023-01-30T11:23:00.521Z,101981.91
2023-01-30T11:25:28.035Z,101983.38
2023-01-30T11:27:59.740Z,101987.91
2023-01-30T11:30:34.048Z,101977.88
2023-01-30T11:33:11.541Z,101972.78
2023-01-30T11:35:51.189Z,101974.41
2023-01-30T11:38:22.411Z,101981.00
2023-01-30T11:40:49.079Z,101973.97
2023-01-30T11:43:15.722Z,101981.09
2023-01-30T11:45:46.531Z,101970.00
2023-01-30T11:48:33.798Z,101989.16
2023-01-30T11:51:06.932Z,101973.81
2023-01-30T11:53:40.743Z,101980.94
2023-01-30T11:56:15.875Z,101973.78
2023-01-30T11:58:46.274Z,101987.13
2023-01-30T12:01:14.257Z,101974.44
2023-01-30T12:03:48.375Z,101983.50
2023-01-30T12:06:25.687Z,101988.78
2023-01-30T12:08:54.348Z,101993.75
2023-01-30T12:11:31.947Z,101996.81
2023-01-30T12:14:11.233Z,102015.34
2023-01-30T12:16:56.072Z,101998.81
2023-01-30T12:19:31.585Z,101996.94
2023-01-30T12:22:08.902Z,102003.19
2023-01-30T12:24:45.229Z,102024.88
2023-01-30T12:27:28.467Z,102016.69
2023-01-30T12:30:20.527Z,102021.28
2023-01-30T12:32:47.481Z,102013.34
2023-01-30T12:35:18.780Z,102002.09
2023-01-30T12:38:06.190Z,102012.97
2023-01-30T12:40:49.170Z,102034.31
2023-01-30T12:43:28.328Z,102016.25
2023-01-30T12:46:20.612Z,102023.16
2023-01-30T12:49:16.252Z,102021.94
2023-01-30T12:52:28.148Z,102027.97
2023-01-30T12:55:08.015Z,102019.69
2023-01-30T12:57:57.647Z,102031.81
2023-01-30T13:00:36.151Z,102042.34
2023-01-30T13:03:27.086Z,102045.44
2023-01-30T13:06:31.087Z,102043.84
2023-01-30T13:09:09.830Z,102039.34
2023-01-30T13:11:48.192Z,102053.75
2023-01-30T13:14:27.348Z,102052.09
2023-01-30T13:17:21.494Z,102048.03
2023-01-30T13:20:05.252Z,102056.22
2023-01-30T13:23:01.539Z,102055.19
2023-01-30T13:25:37.409Z,102058.91
2023-01-30T13:28:12.201Z,102081.31
2023-01-30T13:30:40.733Z,102073.75
2023-01-30T13:33:13.841Z,102074.16
2023-01-30T13:36:01.615Z,102080.09
2023-01-30T13:38:29.970Z,102093.88
2023-01-30T13:40:58.925Z,102097.38
2023-01-30T13:43:36.559Z,102103.50
2023-01-30T13:46:08.312Z,102098.78
2023-01-30T13:48:44.709Z,102115.78
2023-01-30T13:51:21.756Z,102107.00
2023-01-30T13:53:59.505Z,102115.84
2023-01-30T13:56:43.437Z,102117.44
2023-01-30T13:59:37.239Z,102123.03
2023-01-30T14:02:03.771Z,102124.09
2023-01-30T14:04:30.331Z,102117.56
2023-01-30T14:07:14.463Z,102113.47
2023-01-30T14:09:45.588Z,102125.19
2023-01-30T14:12:18.292Z,102136.69
2023-01-30T14:15:14.842Z,102143.06
2023-01-30T14:18:19.452Z,102139.56
2023-01-30T14:20:47.838Z,102157.88
2023-01-30T14:23:32.134Z,102152.16
2023-01-30T14:25:59.088Z,102166.53
2023-01-30T14:28:31.585Z,102168.34
2023-01-30T14:31:01.660Z,102171.47
2023-01-30T14:33:31.911Z,102173.31
2023-01-30T14:35:58.414Z,102183.38
2023-01-30T14:38:36.142Z,102192.66
2023-01-30T14:41:02.619Z,102194.69
2023-01-30T14:43:41.452Z,102204.56
2023-01-30T14:46:19.981Z,102197.78
2023-01-30T14:49:07.551Z,102214.03
2023-01-30T14:51:40.038Z,102215.28
2023-01-30T14:54:12.885Z,102222.25
2023-01-30T14:56:45.459Z,102228.63
2023-01-30T14:59:21.056Z,102223.28
2023-01-30T15:01:59.812Z,102235.78
2023-01-30T15:04:30.255Z,102245.66
2023-01-30T15:06:59.816Z,102242.38
2023-01-30T15:09:29.250Z,102251.22
2023-01-30T15:12:18.262Z,102251.22
2023-01-30T15:15:00.425Z,102263.94
2023-01-30T15:18:02.011Z,102270.06
2023-01-30T15:20:59.980Z,102265.78
2023-01-30T15:23:36.647Z,102277.69
2023-01-30T15:26:12.821Z,102269.91
2023-01-30T15:28:56.179Z,102278.09
2023-01-30T15:31:24.081Z,102268.47
2023-01-30T15:33:56.782Z,102278.53
2023-01-30T15:36:34.805Z,102288.59
2023-01-30T15:39:25.511Z,102295.78
2023-01-30T15:41:57.018Z,102299.47
2023-01-30T15:44:49.721Z,102297.03
2023-01-30T15:48:04.952Z,102311.38
2023-01-30T15:50:31.480Z,102311.56
2023-01-30T15:52:58.862Z,102313.66
2023-01-30T15:55:31.609Z,102314.88
2023-01-30T15:58:02.743Z,102321.22
2023-01-30T16:00:33.088Z,102323.31
2023-01-30T16:03:01.932Z,102322.69
2023-01-30T16:05:29.533Z,102336.84
2023-01-30T16:07:57.825Z,102337.25
2023-01-30T16:10:29.905Z,102342.00
2023-01-30T16:12:58.309Z,102349.56
2023-01-30T16:15:47.449Z,102363.13
2023-01-30T16:18:29.079Z,102364.13
2023-01-30T16:21:03.149Z,102365.16
2023-01-30T16:23:35.245Z,102378.88
2023-01-30T16:26:03.609Z,102387.09
2023-01-30T16:28:32.152Z,102393.22
2023-01-30T16:31:03.838Z,102396.31
2023-01-30T16:33:36.344Z,102398.75
2023-01-30T16:36:25.047Z,102400.59
2023-01-30T16:38:53.450Z,102418.78
2023-01-30T16:41:40.927Z,102435.34
2023-01-30T16:44:31.379Z,102431.88
2023-01-30T16:47:11.038Z,102431.25
2023-01-30T16:49:37.415Z,102437.13
2023-01-30T16:52:25.361Z,102441.03
2023-01-30T16:54:54.761Z,102442.44
2023-01-30T16:57:31.659Z,102453.84
2023-01-30T16:59:58.694Z,102451.63
2023-01-30T17:02:33.517Z,102454.66
2023-01-30T17:05:18.420Z,102442.97
2023-01-30T17:07:45.665Z,102461.16
2023-01-30T17:10:37.005Z,102457.63
2023-01-30T17:13:03.966Z,102464.81
2023-01-30T17:15:35.283Z,102470.13
2023-01-30T17:18:02.250Z,102482.19
2023-01-30T17:20:36.935Z,102482.34
2023-01-30T17:23:08.056Z,102490.53
2023-01-30T17:25:40.231Z,102495.44
2023-01-30T17:28:07.912Z,102501.34
2023-01-30T17:30:35.073Z,102497.22
2023-01-30T17:33:01.770Z,102502.72
2023-01-30T17:35:28.314Z,102513.75
2023-01-30T17:38:04.722Z,102515.97
2023-01-30T17:40:37.676Z,102527.25
2023-01-30T17:43:04.938Z,102521.72
2023-01-30T17:45:31.409Z,102518.25
2023-01-30T17:47:58.115Z,102528.84
2023-01-30T17:50:24.672Z,102522.47
2023-01-30T17:52:51.153Z,102532.03
2023-01-30T17:55:18.183Z,102527.91
2023-01-30T17:57:47.604Z,102535.28
2023-01-30T18:00:19.800Z,102547.34
2023-01-30T18:02:46.868Z,102541.19
2023-01-30T18:05:13.743Z,102541.59
2023-01-30T18:07:41.381Z,102549.09
2023-01-30T18:10:12.105Z,102552.97
2023-01-30T18:12:38.579Z,102561.53
2023-01-30T18:15:05.505Z,102548.97
2023-01-30T18:17:32.472Z,102543.44
2023-01-30T18:20:01.033Z,102561.59
2023-01-30T18:22:27.413Z,102561.97
2023-01-30T18:24:53.819Z,102562.34
2023-01-30T18:27:20.300Z,102562.69
2023-01-30T18:29:46.715Z,102563.06
2023-01-30T18:32:13.118Z,102566.94
2023-01-30T18:34:39.449Z,102572.81
2023-01-30T18:37:05.962Z,102579.69
2023-01-30T18:39:32.454Z,102589.88
2023-01-30T18:41:59.141Z,102590.03
2023-01-30T18:44:25.560Z,102585.94
2023-01-30T18:46:51.994Z,102583.84
2023-01-30T18:49:18.470Z,102584.03
2023-01-30T18:51:44.893Z,102585.66
2023-01-30T18:54:11.341Z,102587.31
2023-01-30T18:56:38.624Z,102595.91
2023-01-30T18:59:06.325Z,102600.59
2023-01-30T19:01:36.667Z,102593.63
2023-01-30T19:04:05.737Z,102594.03
2023-01-30T19:06:35.477Z,102596.69
2023-01-30T19:09:02.002Z,102589.72
2023-01-30T19:11:47.090Z,102599.06
2023-01-30T19:14:14.549Z,102604.56
2023-01-30T19:16:41.240Z,102603.28
2023-01-30T19:19:08.686Z,102600.16
2023-01-30T19:21:35.479Z,102603.19
2023-01-30T19:24:03.897Z,102605.56
2023-01-30T19:26:30.719Z,102609.59
2023-01-30T19:28:57.258Z,102604.00
2023-01-30T19:31:24.025Z,102615.38
2023-01-30T19:33:56.217Z,102617.53
2023-01-30T19:36:24.654Z,102607.81
2023-01-30T19:38:51.344Z,102608.56
2023-01-30T19:41:22.347Z,102610.91
2023-01-30T19:43:49.217Z,102611.47
2023-01-30T19:46:15.787Z,102616.66
2023-01-30T19:48:43.709Z,102612.25
2023-01-30T19:51:21.915Z,102620.09
2023-01-30T19:54:04.359Z,102624.47
2023-01-30T19:56:32.036Z,102617.06
2023-01-30T19:59:00.540Z,102624.38
2023-01-30T20:01:29.723Z,102622.25
2023-01-30T20:03:57.069Z,102628.56
2023-01-30T20:06:26.657Z,102623.41
2023-01-30T20:09:02.233Z,102626.56
2023-01-30T20:11:29.804Z,102629.25
2023-01-30T20:13:56.845Z,102628.72
2023-01-30T20:16:27.073Z,102630.81
2023-01-30T20:19:06.361Z,102633.81
2023-01-30T20:21:33.542Z,102638.84
2023-01-30T20:24:00.893Z,102643.16
2023-01-30T20:26:30.732Z,102642.69
2023-01-30T20:28:57.896Z,102647.69
2023-01-30T20:31:27.365Z,102644.59
2023-01-30T20:33:56.704Z,102639.09
2023-01-30T20:36:25.570Z,102647.69
2023-01-30T20:38:53.399Z,102640.28
2023-01-30T20:41:22.566Z,102642.59
2023-01-30T20:43:51.707Z,102637.09
2023-01-30T20:46:23.929Z,102635.91
2023-01-30T20:48:54.423Z,102635.19
2023-01-30T20:51:23.686Z,102653.94
2023-01-30T20:53:55.703Z,102652.00
2023-01-30T20:56:24.152Z,102664.31
2023-01-30T20:58:50.749Z,102657.06
2023-01-30T21:01:20.315Z,102657.41
2023-01-30T21:03:49.369Z,102652.09
2023-01-30T21:06:42.725Z,102654.94
2023-01-30T21:09:08.833Z,102651.66
2023-01-30T21:11:35.491Z,102659.47
2023-01-30T21:14:02.107Z,102661.16
2023-01-30T21:16:30.971Z,102653.91
2023-01-30T21:19:03.743Z,102658.09
2023-01-30T21:21:33.946Z,102661.41
2023-01-30T21:24:04.546Z,102658.50
2023-01-30T21:26:36.945Z,102662.28
2023-01-30T21:29:06.127Z,102670.09
2023-01-30T21:31:34.696Z,102670.41
2023-01-30T21:34:02.073Z,102664.97
2023-01-30T21:36:28.833Z,102659.56
2023-01-30T21:39:14.181Z,102651.47
2023-01-30T21:41:58.775Z,102653.16
2023-01-30T21:44:28.153Z,102648.19
2023-01-30T21:46:55.139Z,102667.06
2023-01-30T21:49:22.399Z,102663.09
2023-01-30T21:51:49.384Z,102667.75
2023-01-30T21:54:17.290Z,102672.03
2023-01-30T21:56:44.637Z,102683.00
2023-01-30T21:59:11.483Z,102687.94
2023-01-30T22:01:39.028Z,102681.63
2023-01-30T22:04:08.989Z,102684.44
2023-01-30T22:06:37.702Z,102684.44
2023-01-30T22:09:05.906Z,102688.34
2023-01-30T22:11:34.620Z,102690.53
2023-01-30T22:14:01.139Z,102686.19
2023-01-30T22:16:29.043Z,102690.81
2023-01-30T22:18:58.289Z,102687.44
2023-01-30T22:21:28.133Z,102686.78
2023-01-30T22:23:54.982Z,102673.34
2023-01-30T22:26:23.699Z,102673.53
2023-01-30T22:28:55.289Z,102685.47
2023-01-30T22:31:22.485Z,102691.28
2023-01-30T22:33:51.335Z,102683.19
2023-01-30T22:36:17.934Z,102680.22
2023-01-30T22:38:49.180Z,102673.13
2023-01-30T22:41:18.568Z,102667.34
2023-01-30T22:43:47.490Z,102668.06
2023-01-30T22:46:16.041Z,102674.81
2023-01-30T22:48:43.049Z,102671.03
2023-01-30T22:51:16.059Z,102666.13
2023-01-30T22:53:45.323Z,102669.59
2023-01-30T22:56:14.574Z,102658.03
2023-01-30T22:58:41.664Z,102658.34
2023-01-30T23:01:17.237Z,102653.75
2023-01-30T23:03:45.284Z,102655.25
2023-01-30T23:06:14.096Z,102652.28
2023-01-30T23:08:42.964Z,102641.22
2023-01-30T23:11:37.251Z,102646.00
2023-01-30T23:14:13.042Z,102643.88
2023-01-30T23:16:41.163Z,102640.22
2023-01-30T23:19:08.943Z,102631.81
2023-01-30T23:21:37.066Z,102631.47
2023-01-30T23:24:18.514Z,102629.81
2023-01-30T23:26:47.594Z,102628.53
2023-01-30T23:29:16.272Z,102634.94
2023-01-30T23:31:44.345Z,102629.84
2023-01-30T23:34:18.916Z,102626.38
2023-01-30T23:36:46.254Z,102623.72
2023-01-30T23:39:14.328Z,102630.16
2023-01-30T23:41:41.948Z,102630.00
2023-01-30T23:44:09.056Z,102631.34
2023-01-30T23:46:40.912Z,102630.66
2023-01-30T23:49:12.589Z,102627.69
2023-01-30T23:51:41.219Z,102626.22
2023-01-30T23:54:08.417Z,102631.31
2023-01-30T23:56:37.665Z,102639.25
2023-01-30T23:59:05.040Z,102649.16
